RJCW/WKJ METAR and TAF weather

Enter ICAO airport designator
Station Type Date Time Source
RJCW METAR 2022/01/25 04:00 UTC NOAA

RJCW 250400Z 01008KT 9999 FEW020 BKN030 M04/M09 Q1018


Station Type Date Time Source
RJCW Decoded METAR 2022/01/25 04:00 UTC NOAA

Wakkanai Airport, Japan (RJCW) 45-24N 141-48E 11M
Jan 24, 2022 - 11:00 PM EST / 2022.01.25 0400 UTC
Wind: from the N (010 degrees) at 9 MPH (8 KT):0
Visibility: greater than 7 mile(s):0
Sky conditions: mostly cloudy
Temperature: 24 F (-4 C)
Windchill: 14 F (-10 C):1
Dew Point: 15 F (-9 C)
Relative Humidity: 68%
Pressure (altimeter): 30.06 in. Hg (1018 hPa)
ob: RJCW 250400Z 01008KT 9999 FEW020 BKN030 M04/M09 Q1018
cycle: 4

Station Type Date Time Source
RJCW TAF UTC NOAA

Error!

Example: see airport list